createdAt,value
2023-05-23T00:01:33.689Z,12.38
2023-05-23T00:04:01.998Z,12.85
2023-05-23T00:06:28.958Z,14.15
2023-05-23T00:08:56.944Z,13.30
2023-05-23T00:11:27.210Z,13.60
2023-05-23T00:13:54.278Z,16.05
2023-05-23T00:16:22.830Z,15.63
2023-05-23T00:18:50.388Z,15.52
2023-05-23T00:21:17.384Z,15.25
2023-05-23T00:23:44.239Z,16.02
2023-05-23T00:26:11.475Z,16.85
2023-05-23T00:28:42.855Z,18.85
2023-05-23T00:31:09.812Z,16.95
2023-05-23T00:33:37.182Z,17.33
2023-05-23T00:36:04.076Z,17.27
2023-05-23T00:38:31.502Z,19.83
2023-05-23T00:40:58.706Z,19.65
2023-05-23T00:43:25.806Z,20.83
2023-05-23T00:45:52.850Z,19.55
2023-05-23T00:48:20.004Z,19.05
2023-05-23T00:50:47.239Z,20.08
2023-05-23T00:53:14.303Z,17.00
2023-05-23T00:55:41.557Z,16.85
2023-05-23T00:58:09.088Z,16.17
2023-05-23T01:00:38.612Z,15.10
2023-05-23T01:03:05.537Z,14.65
2023-05-23T01:05:32.544Z,12.88
2023-05-23T01:07:59.862Z,12.82
2023-05-23T01:10:28.382Z,12.55
2023-05-23T01:12:58.244Z,11.93
2023-05-23T01:15:34.317Z,12.18
2023-05-23T01:18:10.009Z,11.57
2023-05-23T01:20:45.880Z,10.48
2023-05-23T01:23:14.348Z,10.05
2023-05-23T01:26:19.700Z,10.20
2023-05-23T01:28:50.187Z,9.18
2023-05-23T01:31:18.769Z,8.20
2023-05-23T01:33:46.699Z,7.80
2023-05-23T01:36:15.354Z,8.20
2023-05-23T01:38:43.035Z,7.85
2023-05-23T01:41:10.059Z,7.47
2023-05-23T01:43:38.438Z,7.47
2023-05-23T01:46:07.699Z,7.22
2023-05-23T01:48:35.465Z,7.93
2023-05-23T01:51:02.564Z,8.10
2023-05-23T01:53:31.480Z,8.65
2023-05-23T01:55:58.842Z,10.27
2023-05-23T01:58:25.993Z,10.65
2023-05-23T02:00:53.062Z,10.18
2023-05-23T02:03:19.971Z,10.30
2023-05-23T02:05:47.024Z,9.98
2023-05-23T02:08:13.956Z,10.60
2023-05-23T02:10:40.910Z,10.75
2023-05-23T02:13:07.827Z,10.93
2023-05-23T02:15:34.699Z,11.43
2023-05-23T02:18:03.232Z,11.32
2023-05-23T02:20:31.322Z,10.18
2023-05-23T02:22:58.209Z,9.38
2023-05-23T02:25:25.086Z,10.15
2023-05-23T02:27:51.973Z,9.43
2023-05-23T02:30:19.027Z,9.02
2023-05-23T02:32:46.402Z,8.90
2023-05-23T02:35:13.496Z,8.43
2023-05-23T02:37:41.092Z,8.18
2023-05-23T02:40:08.916Z,8.32
2023-05-23T02:42:36.513Z,8.20
2023-05-23T02:45:04.198Z,8.38
2023-05-23T02:47:31.377Z,7.82
2023-05-23T02:49:58.269Z,7.47
2023-05-23T02:52:25.747Z,7.28
2023-05-23T02:54:53.304Z,8.07
2023-05-23T02:57:20.539Z,8.25
2023-05-23T02:59:47.445Z,7.45
2023-05-23T03:02:14.524Z,7.40
2023-05-23T03:04:41.608Z,7.40
2023-05-23T03:07:17.177Z,9.05
2023-05-23T03:09:54.328Z,9.02
2023-05-23T03:12:21.327Z,8.65
2023-05-23T03:14:48.193Z,8.88
2023-05-23T03:17:15.032Z,8.75
2023-05-23T03:19:41.892Z,9.40
2023-05-23T03:22:08.892Z,8.82
2023-05-23T03:24:35.704Z,8.60
2023-05-23T03:27:03.119Z,8.25
2023-05-23T03:29:30.092Z,9.20
2023-05-23T03:31:57.659Z,8.60
2023-05-23T03:34:26.403Z,8.60
2023-05-23T03:36:53.411Z,9.10
2023-05-23T03:39:20.508Z,8.02
2023-05-23T03:41:47.398Z,8.25
2023-05-23T03:44:14.799Z,7.88
2023-05-23T03:46:42.136Z,7.93
2023-05-23T03:49:09.624Z,7.80
2023-05-23T03:51:36.533Z,7.78
2023-05-23T03:54:03.509Z,8.02
2023-05-23T03:56:30.352Z,7.78
2023-05-23T03:58:57.178Z,6.85
2023-05-23T04:01:24.000Z,7.05
2023-05-23T04:03:51.502Z,5.75
2023-05-23T04:06:20.565Z,6.72
2023-05-23T04:08:48.468Z,6.10
2023-05-23T04:11:15.774Z,6.45
2023-05-23T04:13:42.873Z,5.35
2023-05-23T04:16:11.626Z,6.30
2023-05-23T04:18:39.322Z,5.78
2023-05-23T04:21:07.486Z,6.25
2023-05-23T04:23:38.781Z,5.55
2023-05-23T04:26:07.241Z,5.72
2023-05-23T04:28:36.153Z,6.00
2023-05-23T04:31:03.703Z,5.60
2023-05-23T04:33:34.288Z,5.35
2023-05-23T04:36:03.265Z,5.32
2023-05-23T04:38:32.144Z,4.88
2023-05-23T04:41:00.068Z,5.18
2023-05-23T04:43:46.153Z,5.40
2023-05-23T04:46:26.576Z,4.93
2023-05-23T04:49:22.933Z,4.97
2023-05-23T04:51:51.130Z,4.72
2023-05-23T04:54:28.863Z,5.57
2023-05-23T04:56:58.474Z,5.97
2023-05-23T04:59:26.842Z,6.68
2023-05-23T05:01:53.825Z,6.25
2023-05-23T05:04:22.274Z,7.22
2023-05-23T05:06:50.660Z,7.78
2023-05-23T05:09:19.102Z,8.55
2023-05-23T05:11:46.706Z,8.07
2023-05-23T05:14:14.571Z,8.35
2023-05-23T05:16:42.863Z,7.80
2023-05-23T05:19:10.385Z,8.75
2023-05-23T05:21:37.485Z,8.85
2023-05-23T05:24:05.549Z,8.50
2023-05-23T05:26:32.549Z,8.27
2023-05-23T05:28:59.824Z,8.88
2023-05-23T05:31:27.671Z,8.82
2023-05-23T05:33:55.525Z,8.15
2023-05-23T05:36:22.460Z,7.55
2023-05-23T05:38:51.254Z,7.25
2023-05-23T05:41:20.529Z,7.28
2023-05-23T05:43:50.881Z,6.68
2023-05-23T05:46:18.682Z,6.15
2023-05-23T05:48:46.531Z,7.15
2023-05-23T05:51:17.606Z,6.65
2023-05-23T05:53:44.789Z,6.68
2023-05-23T05:56:13.636Z,6.68
2023-05-23T05:58:41.108Z,5.70
2023-05-23T06:01:10.107Z,5.32
2023-05-23T06:03:37.688Z,5.82
2023-05-23T06:06:04.949Z,4.88
2023-05-23T06:08:31.999Z,5.45
2023-05-23T06:10:58.966Z,5.40
2023-05-23T06:13:26.814Z,4.85
2023-05-23T06:15:54.532Z,5.30
2023-05-23T06:18:23.839Z,5.28
2023-05-23T06:20:51.655Z,5.13
2023-05-23T06:23:20.676Z,5.25
2023-05-23T06:25:48.116Z,4.70
2023-05-23T06:28:15.092Z,5.43
2023-05-23T06:30:42.383Z,4.63
2023-05-23T06:33:09.424Z,4.65
2023-05-23T06:35:36.417Z,4.35
2023-05-23T06:38:03.374Z,5.20
2023-05-23T06:40:30.465Z,5.30
2023-05-23T06:42:57.429Z,5.65
2023-05-23T06:45:35.122Z,5.55
2023-05-23T06:48:02.762Z,4.93
2023-05-23T06:50:31.473Z,5.22
2023-05-23T06:52:58.493Z,5.38
2023-05-23T06:55:25.572Z,5.70
2023-05-23T06:57:52.648Z,5.28
2023-05-23T07:00:21.722Z,5.53
2023-05-23T07:03:03.646Z,5.07
2023-05-23T07:05:31.051Z,5.38
2023-05-23T07:07:58.184Z,5.50
2023-05-23T07:10:26.448Z,5.38
2023-05-23T07:12:59.554Z,4.95
2023-05-23T07:15:28.811Z,5.03
2023-05-23T07:18:05.877Z,3.97
2023-05-23T07:20:34.301Z,4.95
2023-05-23T07:23:10.131Z,4.82
2023-05-23T07:25:38.963Z,5.10
2023-05-23T07:28:11.888Z,4.68
2023-05-23T07:30:39.647Z,4.75
2023-05-23T07:33:09.082Z,4.50
2023-05-23T07:35:36.558Z,4.68
2023-05-23T07:38:05.365Z,4.57
2023-05-23T07:40:32.532Z,4.80
2023-05-23T07:43:00.275Z,5.00
2023-05-23T07:45:27.378Z,5.13
2023-05-23T07:47:54.532Z,4.70
2023-05-23T07:50:21.945Z,4.68
2023-05-23T07:52:52.035Z,5.85
2023-05-23T07:55:25.062Z,5.10
2023-05-23T07:57:56.496Z,5.60
2023-05-23T08:00:24.594Z,5.35
2023-05-23T08:02:57.132Z,4.75
2023-05-23T08:05:30.774Z,4.72
2023-05-23T08:07:58.406Z,4.93
2023-05-23T08:10:28.340Z,4.57
2023-05-23T08:13:01.024Z,4.78
2023-05-23T08:15:33.830Z,4.60
2023-05-23T08:18:09.070Z,5.10
2023-05-23T08:20:36.465Z,5.45
2023-05-23T08:23:03.399Z,5.60
2023-05-23T08:25:32.487Z,5.18
2023-05-23T08:28:01.515Z,5.40
2023-05-23T08:30:39.200Z,4.85
2023-05-23T08:33:07.283Z,5.03
2023-05-23T08:35:36.836Z,6.80
2023-05-23T08:38:09.959Z,5.35
2023-05-23T08:40:50.729Z,5.72
2023-05-23T08:43:19.776Z,5.57
2023-05-23T08:45:49.145Z,5.38
2023-05-23T08:48:20.131Z,5.25
2023-05-23T08:50:53.176Z,5.35
2023-05-23T08:53:26.643Z,5.30
2023-05-23T08:56:02.929Z,5.35
2023-05-23T08:58:42.259Z,5.43
2023-05-23T09:01:11.070Z,5.63
2023-05-23T09:03:39.069Z,5.28
2023-05-23T09:06:15.954Z,5.22
2023-05-23T09:08:46.060Z,5.68
2023-05-23T09:11:14.826Z,5.32
2023-05-23T09:13:44.367Z,6.03
2023-05-23T09:16:17.887Z,5.57
2023-05-23T09:18:56.808Z,6.15
2023-05-23T09:21:25.885Z,5.95
2023-05-23T09:24:02.176Z,5.55
2023-05-23T09:26:29.108Z,5.50
2023-05-23T09:28:59.842Z,6.13
2023-05-23T09:31:30.277Z,6.63
2023-05-23T09:33:58.611Z,5.88
2023-05-23T09:36:30.219Z,5.70
2023-05-23T09:38:57.443Z,5.85
2023-05-23T09:41:25.269Z,5.57
2023-05-23T09:43:56.313Z,5.85
2023-05-23T09:46:23.433Z,5.95
2023-05-23T09:48:52.407Z,5.40
2023-05-23T09:51:21.568Z,5.70
2023-05-23T09:53:53.047Z,5.82
2023-05-23T09:56:20.373Z,5.00
2023-05-23T09:58:49.155Z,5.30
2023-05-23T10:01:16.904Z,5.68
2023-05-23T10:03:56.674Z,5.53
2023-05-23T10:06:28.913Z,5.80
2023-05-23T10:09:04.936Z,5.50
2023-05-23T10:11:34.926Z,6.57
2023-05-23T10:14:06.371Z,6.78
2023-05-23T10:16:40.052Z,6.32
2023-05-23T10:19:20.916Z,6.45
2023-05-23T10:21:52.514Z,6.85
2023-05-23T10:24:21.022Z,6.50
2023-05-23T10:26:48.848Z,6.90
2023-05-23T10:29:15.911Z,6.85
2023-05-23T10:31:44.029Z,6.80
2023-05-23T10:34:34.242Z,7.50
2023-05-23T10:37:04.345Z,7.95
2023-05-23T10:39:47.996Z,7.05
2023-05-23T10:42:27.741Z,7.30
2023-05-23T10:45:14.692Z,7.65
2023-05-23T10:47:41.748Z,7.30
2023-05-23T10:50:13.790Z,7.25
2023-05-23T10:52:42.383Z,7.70
2023-05-23T10:55:19.677Z,7.15
2023-05-23T10:57:47.179Z,7.15
2023-05-23T11:00:16.342Z,7.05
2023-05-23T11:03:00.524Z,7.93
2023-05-23T11:05:31.902Z,7.28
2023-05-23T11:08:13.979Z,7.78
2023-05-23T11:11:00.275Z,7.32
2023-05-23T11:13:57.445Z,7.97
2023-05-23T11:16:28.517Z,8.73
2023-05-23T11:19:18.781Z,8.48
2023-05-23T11:21:47.079Z,8.65
2023-05-23T11:24:14.004Z,8.95
2023-05-23T11:26:53.518Z,9.07
2023-05-23T11:29:21.642Z,9.45
2023-05-23T11:31:48.648Z,9.68
2023-05-23T11:34:16.016Z,10.85
2023-05-23T11:36:42.901Z,10.52
2023-05-23T11:39:10.437Z,10.77
2023-05-23T11:41:37.365Z,10.10
2023-05-23T11:44:11.643Z,11.90
2023-05-23T11:46:39.625Z,11.55
2023-05-23T11:49:12.874Z,10.43
2023-05-23T11:51:39.957Z,11.10
2023-05-23T11:54:07.632Z,12.20
2023-05-23T11:56:39.660Z,11.15
2023-05-23T11:59:06.603Z,10.93
2023-05-23T12:01:34.730Z,11.00
2023-05-23T12:04:11.891Z,11.00
2023-05-23T12:06:42.608Z,11.80
2023-05-23T12:09:12.737Z,11.95
2023-05-23T12:11:41.371Z,12.00
2023-05-23T12:14:09.685Z,12.02
2023-05-23T12:16:37.033Z,12.75
2023-05-23T12:19:06.602Z,12.73
2023-05-23T12:21:45.764Z,13.45
2023-05-23T12:24:17.785Z,14.02
2023-05-23T12:27:02.095Z,14.45
2023-05-23T12:29:35.827Z,13.95
2023-05-23T12:32:04.447Z,13.68
2023-05-23T12:34:31.648Z,12.60
2023-05-23T12:37:15.005Z,13.88
2023-05-23T12:39:46.324Z,12.85
2023-05-23T12:42:13.453Z,12.90
2023-05-23T12:44:42.208Z,12.98
2023-05-23T12:47:09.332Z,14.63
2023-05-23T12:49:37.158Z,13.48
2023-05-23T12:52:06.480Z,15.00
2023-05-23T12:54:33.491Z,15.25
2023-05-23T12:57:00.427Z,13.80
2023-05-23T12:59:27.297Z,14.30
2023-05-23T13:01:54.957Z,15.00
2023-05-23T13:04:22.892Z,14.20
2023-05-23T13:06:49.958Z,15.50
2023-05-23T13:09:17.073Z,13.20
2023-05-23T13:11:44.410Z,15.68
2023-05-23T13:14:11.437Z,14.77
2023-05-23T13:16:39.423Z,14.60
2023-05-23T13:19:06.644Z,15.18
2023-05-23T13:21:33.629Z,14.07
2023-05-23T13:24:00.574Z,14.90
2023-05-23T13:26:27.597Z,15.30
2023-05-23T13:28:54.572Z,14.88
2023-05-23T13:31:21.847Z,14.40
2023-05-23T13:33:49.025Z,14.98
2023-05-23T13:36:16.097Z,14.75
2023-05-23T13:38:43.161Z,14.70
2023-05-23T13:41:10.414Z,14.60
2023-05-23T13:43:37.499Z,14.55
2023-05-23T13:46:04.599Z,13.25
2023-05-23T13:48:31.708Z,14.95
2023-05-23T13:50:58.937Z,13.98
2023-05-23T13:53:26.073Z,15.18
2023-05-23T13:55:53.263Z,15.82
2023-05-23T13:58:20.571Z,14.70
2023-05-23T14:00:47.635Z,14.68
2023-05-23T14:03:15.883Z,14.65
2023-05-23T14:05:42.956Z,15.13
2023-05-23T14:08:11.281Z,14.60
2023-05-23T14:10:38.227Z,15.00
2023-05-23T14:13:06.973Z,15.15
2023-05-23T14:15:34.871Z,14.13
2023-05-23T14:18:02.142Z,14.50
2023-05-23T14:20:29.934Z,15.18
2023-05-23T14:22:56.755Z,13.98
2023-05-23T14:25:23.917Z,13.73
2023-05-23T14:27:51.345Z,14.45
2023-05-23T14:30:18.509Z,15.38
2023-05-23T14:32:45.499Z,14.23
2023-05-23T14:35:12.727Z,14.35
2023-05-23T14:37:39.896Z,14.57
2023-05-23T14:40:08.173Z,14.23
2023-05-23T14:42:35.025Z,14.60
2023-05-23T14:45:02.259Z,14.00
2023-05-23T14:47:29.582Z,14.48
2023-05-23T14:49:56.698Z,14.27
2023-05-23T14:52:23.595Z,14.02
2023-05-23T14:54:50.875Z,13.73
2023-05-23T14:57:18.181Z,13.60
2023-05-23T14:59:46.617Z,13.57
2023-05-23T15:02:13.802Z,14.45
2023-05-23T15:04:41.016Z,13.30
2023-05-23T15:07:08.068Z,14.30
2023-05-23T15:09:35.068Z,14.15
2023-05-23T15:12:02.113Z,13.65
2023-05-23T15:14:33.267Z,13.13
2023-05-23T15:17:07.727Z,14.07
2023-05-23T15:19:39.174Z,13.63
2023-05-23T15:22:06.235Z,14.00
2023-05-23T15:24:34.956Z,13.02
2023-05-23T15:27:15.824Z,13.95
2023-05-23T15:29:46.263Z,13.60
2023-05-23T15:32:13.320Z,13.88
2023-05-23T15:34:40.571Z,13.68
2023-05-23T15:37:07.610Z,13.65
2023-05-23T15:39:34.481Z,13.93
2023-05-23T15:42:04.654Z,13.30
2023-05-23T15:44:34.110Z,13.40
2023-05-23T15:47:01.147Z,13.68
2023-05-23T15:49:28.406Z,14.10
2023-05-23T15:51:55.630Z,13.68
2023-05-23T15:54:23.059Z,13.88
2023-05-23T15:56:49.981Z,13.43
2023-05-23T15:59:17.178Z,12.88
2023-05-23T16:01:44.593Z,13.43
2023-05-23T16:04:11.763Z,12.90
2023-05-23T16:06:39.565Z,13.25
2023-05-23T16:09:08.446Z,13.52
2023-05-23T16:11:35.573Z,12.45
2023-05-23T16:14:02.499Z,13.57
2023-05-23T16:16:29.536Z,12.80
2023-05-23T16:18:56.616Z,13.15
2023-05-23T16:21:23.906Z,13.02
2023-05-23T16:23:51.489Z,13.00
2023-05-23T16:26:19.228Z,13.52
2023-05-23T16:28:46.364Z,12.73
2023-05-23T16:31:17.649Z,12.45
2023-05-23T16:33:45.135Z,12.80
2023-05-23T16:36:12.195Z,13.50
2023-05-23T16:38:39.173Z,12.73
2023-05-23T16:41:06.114Z,12.02
2023-05-23T16:43:34.168Z,13.50
2023-05-23T16:46:01.247Z,13.02
2023-05-23T16:48:31.331Z,12.38
2023-05-23T16:50:58.390Z,12.55
2023-05-23T16:53:25.408Z,13.05
2023-05-23T16:55:52.464Z,12.95
2023-05-23T16:58:21.147Z,12.40
2023-05-23T17:00:48.909Z,12.88
2023-05-23T17:03:16.111Z,12.15
2023-05-23T17:05:43.418Z,13.27
2023-05-23T17:08:10.729Z,12.90
2023-05-23T17:10:37.958Z,12.18
2023-05-23T17:13:04.901Z,12.55
2023-05-23T17:15:32.000Z,12.38
2023-05-23T17:17:59.019Z,12.32
2023-05-23T17:20:26.948Z,12.80
2023-05-23T17:22:54.811Z,12.75
2023-05-23T17:25:22.273Z,12.77
2023-05-23T17:27:49.399Z,12.63
2023-05-23T17:30:18.667Z,13.05
2023-05-23T17:32:49.493Z,12.93
2023-05-23T17:35:16.467Z,13.10
2023-05-23T17:37:44.959Z,13.38
2023-05-23T17:40:13.246Z,13.20
2023-05-23T17:42:41.343Z,12.48
2023-05-23T17:45:10.029Z,12.98
2023-05-23T17:47:37.158Z,13.10
2023-05-23T17:50:05.255Z,12.57
2023-05-23T17:52:32.664Z,12.50
2023-05-23T17:54:59.978Z,12.45
2023-05-23T17:57:28.319Z,12.80
2023-05-23T17:59:55.229Z,12.77
2023-05-23T18:02:22.192Z,12.80
2023-05-23T18:04:49.292Z,13.38
2023-05-23T18:07:19.478Z,12.60
2023-05-23T18:09:47.347Z,12.75
2023-05-23T18:12:14.960Z,12.75
2023-05-23T18:14:42.336Z,12.50
2023-05-23T18:17:09.977Z,12.77
2023-05-23T18:19:37.527Z,12.27
2023-05-23T18:22:04.831Z,12.75
2023-05-23T18:24:31.739Z,12.27
2023-05-23T18:26:58.719Z,12.25
2023-05-23T18:29:26.340Z,12.80
2023-05-23T18:31:53.206Z,11.38
2023-05-23T18:34:21.483Z,11.77
2023-05-23T18:36:48.648Z,12.35
2023-05-23T18:39:16.443Z,11.35
2023-05-23T18:41:43.355Z,13.00
2023-05-23T18:44:11.661Z,13.00
2023-05-23T18:46:38.543Z,12.38
2023-05-23T18:49:06.054Z,12.68
2023-05-23T18:51:33.967Z,12.27
2023-05-23T18:54:01.139Z,11.48
2023-05-23T18:56:28.010Z,11.50
2023-05-23T18:58:55.037Z,12.23
2023-05-23T19:01:22.204Z,11.93
2023-05-23T19:03:49.297Z,11.73
2023-05-23T19:06:16.789Z,12.43
2023-05-23T19:08:43.762Z,12.35
2023-05-23T19:11:10.891Z,13.20
2023-05-23T19:13:37.878Z,12.55
2023-05-23T19:16:05.074Z,12.30
2023-05-23T19:18:32.230Z,13.30
2023-05-23T19:20:59.182Z,12.20
2023-05-23T19:23:26.668Z,12.85
2023-05-23T19:25:53.633Z,13.25
2023-05-23T19:28:20.558Z,15.30
2023-05-23T19:30:47.551Z,14.98
2023-05-23T19:33:14.734Z,15.60
2023-05-23T19:35:43.105Z,16.05
2023-05-23T19:38:10.115Z,14.85
2023-05-23T19:40:37.082Z,14.32
2023-05-23T19:43:04.137Z,15.63
2023-05-23T19:45:31.093Z,15.80
2023-05-23T19:47:58.164Z,14.43
2023-05-23T19:50:25.442Z,14.23
2023-05-23T19:52:52.458Z,15.70
2023-05-23T19:55:19.587Z,15.95
2023-05-23T19:57:46.564Z,16.80
2023-05-23T20:00:14.917Z,17.30
2023-05-23T20:02:42.679Z,19.27
2023-05-23T20:05:09.859Z,18.83
2023-05-23T20:07:36.808Z,17.65
2023-05-23T20:10:04.338Z,18.02
2023-05-23T20:12:31.344Z,17.88
2023-05-23T20:14:58.355Z,18.17
2023-05-23T20:17:25.586Z,18.15
2023-05-23T20:19:52.666Z,17.25
2023-05-23T20:22:19.561Z,18.60
2023-05-23T20:24:46.919Z,19.48
2023-05-23T20:27:14.068Z,20.50
2023-05-23T20:29:41.326Z,19.23
2023-05-23T20:32:08.095Z,19.65
2023-05-23T20:34:34.947Z,19.40
2023-05-23T20:37:03.520Z,18.80
2023-05-23T20:39:30.529Z,19.40
2023-05-23T20:41:57.852Z,20.02
2023-05-23T20:44:24.769Z,20.33
2023-05-23T20:46:51.686Z,19.27
2023-05-23T20:49:18.832Z,20.25
2023-05-23T20:51:45.715Z,20.70
2023-05-23T20:54:12.894Z,19.38
2023-05-23T20:56:39.962Z,20.27
2023-05-23T20:59:07.084Z,19.17
2023-05-23T21:01:34.098Z,18.67
2023-05-23T21:04:01.183Z,18.55
2023-05-23T21:06:28.221Z,18.15
2023-05-23T21:08:55.163Z,19.60
2023-05-23T21:11:23.316Z,18.92
2023-05-23T21:13:50.382Z,18.35
2023-05-23T21:16:17.280Z,18.63
2023-05-23T21:18:44.290Z,17.50
2023-05-23T21:21:11.192Z,16.92
2023-05-23T21:23:38.121Z,16.98
2023-05-23T21:26:05.117Z,17.35
2023-05-23T21:28:32.226Z,16.60
2023-05-23T21:30:59.897Z,18.00
2023-05-23T21:33:26.846Z,16.55
2023-05-23T21:35:53.838Z,15.55
2023-05-23T21:38:20.892Z,15.80
2023-05-23T21:40:47.913Z,16.20
2023-05-23T21:43:14.738Z,15.77
2023-05-23T21:45:41.869Z,16.13
2023-05-23T21:48:08.687Z,14.38
2023-05-23T21:50:35.755Z,14.80
2023-05-23T21:53:02.651Z,13.93
2023-05-23T21:55:30.464Z,13.93
2023-05-23T21:57:57.288Z,13.18
2023-05-23T22:00:24.188Z,12.45
2023-05-23T22:02:51.778Z,12.13
2023-05-23T22:05:18.708Z,12.85
2023-05-23T22:07:45.974Z,13.52
2023-05-23T22:10:13.160Z,12.55
2023-05-23T22:12:40.089Z,12.75
2023-05-23T22:15:08.349Z,12.10
2023-05-23T22:17:35.473Z,11.45
2023-05-23T22:20:05.303Z,12.52
2023-05-23T22:22:32.314Z,12.30
2023-05-23T22:24:59.212Z,12.35
2023-05-23T22:27:26.222Z,13.02
2023-05-23T22:29:53.093Z,11.85
2023-05-23T22:32:20.094Z,12.18
2023-05-23T22:34:47.045Z,14.55
2023-05-23T22:37:15.732Z,14.25
2023-05-23T22:39:42.758Z,13.93
2023-05-23T22:42:09.571Z,14.07
2023-05-23T22:44:36.724Z,15.20
2023-05-23T22:47:03.966Z,14.27
2023-05-23T22:49:31.177Z,12.60
2023-05-23T22:51:59.331Z,11.63
2023-05-23T22:54:26.258Z,12.45
2023-05-23T22:56:53.314Z,11.93
2023-05-23T22:59:20.272Z,12.32
2023-05-23T23:01:47.337Z,12.05
2023-05-23T23:04:14.913Z,11.65
2023-05-23T23:06:43.232Z,12.60
2023-05-23T23:09:10.297Z,12.32
2023-05-23T23:11:37.201Z,12.35
2023-05-23T23:14:04.050Z,12.18
2023-05-23T23:16:30.982Z,10.50
2023-05-23T23:18:58.846Z,11.52
2023-05-23T23:21:25.837Z,10.85
2023-05-23T23:23:52.793Z,10.50
2023-05-23T23:26:19.737Z,10.55
2023-05-23T23:28:46.670Z,10.60
2023-05-23T23:31:13.596Z,10.85
2023-05-23T23:33:40.555Z,10.18
2023-05-23T23:36:07.641Z,9.98
2023-05-23T23:38:34.648Z,10.20
2023-05-23T23:41:01.546Z,10.45
2023-05-23T23:43:28.490Z,10.23
2023-05-23T23:45:55.383Z,9.85
2023-05-23T23:48:22.254Z,9.25
2023-05-23T23:50:49.249Z,9.20
2023-05-23T23:53:16.919Z,8.70
2023-05-23T23:55:43.897Z,10.43
2023-05-23T23:58:10.843Z,9.52
